Terminal Aerodrome Forecast
Issued by NWS

Home | Current Version | Previous Version | Text Only | Print | Product List | Glossary Off
Versions: 1 2 3 4 5 6 7 8 9 10 11 12 13 14 15 16 17 18 19 20 21 22

581
FTUS41 KCLE 242327
TAFFDY
TAF
KFDY 242327Z 2500/2524 07009KT 6SM -SHRA VCTS OVC012CB
     FM250200 06009KT 5SM -TSRA OVC015CB
     FM250700 07007KT P6SM VCSH OVC010
     FM250900 08006KT P6SM OVC010
     FM251400 04005KT P6SM OVC020
     FM251700 34007KT 6SM -SHRA OVC020
     FM251900 32008KT 4SM -SHRA OVC010=

USA.gov is the U.S. government's official web portal to all federal, state and local government web resources and services.